sensor_id;sensor_type;location;lat;lon;timestamp;pressure;altitude;pressure_sealevel;temperature;humidity
68994;BME280;56054;50.968;5.816;2023-02-12T07:13:13;103038.00;;;6.73;100.00
68994;BME280;56054;50.968;5.816;2023-02-12T08:36:35;103052.72;;;6.81;100.00
68994;BME280;56054;50.968;5.816;2023-02-12T08:39:42;103050.44;;;6.92;100.00
68994;BME280;56054;50.968;5.816;2023-02-12T08:42:51;103055.94;;;6.95;100.00
68994;BME280;56054;50.968;5.816;2023-02-12T08:46:03;103073.31;;;6.96;100.00
68994;BME280;56054;50.968;5.816;2023-02-12T08:49:15;103073.66;;;6.99;100.00
68994;BME280;56054;50.968;5.816;2023-02-12T08:52:24;103069.63;;;6.94;100.00
68994;BME280;56054;50.968;5.816;2023-02-12T08:55:31;103071.25;;;7.00;100.00
68994;BME280;56054;50.968;5.816;2023-02-12T08:58:39;103071.41;;;7.02;100.00
68994;BME280;56054;50.968;5.816;2023-02-12T09:01:49;103076.25;;;6.99;100.00
68994;BME280;56054;50.968;5.816;2023-02-12T09:04:56;103080.81;;;7.08;100.00
68994;BME280;56054;50.968;5.816;2023-02-12T09:08:04;103069.59;;;7.01;100.00
68994;BME280;56054;50.968;5.816;2023-02-12T09:11:16;103073.63;;;7.06;100.00
68994;BME280;56054;50.968;5.816;2023-02-12T09:14:50;103076.91;;;7.12;100.00
68994;BME280;56054;50.968;5.816;2023-02-12T09:17:57;103067.84;;;7.16;100.00
68994;BME280;56054;50.968;5.816;2023-02-12T09:21:09;103061.56;;;7.14;100.00
68994;BME280;56054;50.968;5.816;2023-02-12T09:24:16;103066.00;;;7.15;100.00
68994;BME280;56054;50.968;5.816;2023-02-12T09:27:23;103070.56;;;7.24;100.00
68994;BME280;56054;50.968;5.816;2023-02-12T09:30:34;103071.63;;;7.26;100.00
68994;BME280;56054;50.968;5.816;2023-02-12T09:33:41;103072.69;;;7.36;100.00
68994;BME280;56054;50.968;5.816;2023-02-12T09:36:49;103070.63;;;7.40;100.00
68994;BME280;56054;50.968;5.816;2023-02-12T09:39:56;103059.94;;;7.37;100.00
68994;BME280;56054;50.968;5.816;2023-02-12T09:46:49;103064.53;;;7.40;100.00
68994;BME280;56054;50.968;5.816;2023-02-12T09:50:30;103077.56;;;7.48;100.00
68994;BME280;56054;50.968;5.816;2023-02-12T09:53:42;103082.69;;;7.56;100.00
68994;BME280;56054;50.968;5.816;2023-02-12T09:56:57;103079.59;;;7.51;100.00
68994;BME280;56054;50.968;5.816;2023-02-12T10:03:15;103084.16;;;7.61;100.00
68994;BME280;56054;50.968;5.816;2023-02-12T10:06:57;103080.28;;;7.57;100.00
68994;BME280;56054;50.968;5.816;2023-02-12T10:25:43;103094.59;;;7.69;100.00
68994;BME280;56054;50.968;5.816;2023-02-12T10:28:53;103085.16;;;7.70;100.00
68994;BME280;56054;50.968;5.816;2023-02-12T10:32:28;103091.09;;;7.69;100.00
68994;BME280;56054;50.968;5.816;2023-02-12T10:35:42;103087.53;;;7.76;100.00
68994;BME280;56054;50.968;5.816;2023-02-12T10:38:57;103091.75;;;7.75;100.00
68994;BME280;56054;50.968;5.816;2023-02-12T10:45:48;103086.00;;;7.78;100.00
68994;BME280;56054;50.968;5.816;2023-02-12T10:48:59;103094.28;;;7.82;100.00
68994;BME280;56054;50.968;5.816;2023-02-12T10:52:11;103093.72;;;7.85;100.00
68994;BME280;56054;50.968;5.816;2023-02-12T10:55:31;103097.41;;;7.87;100.00
68994;BME280;56054;50.968;5.816;2023-02-12T11:01:56;103082.72;;;7.94;100.00
68994;BME280;56054;50.968;5.816;2023-02-12T11:05:28;103097.59;;;8.04;100.00
68994;BME280;56054;50.968;5.816;2023-02-12T11:08:36;103093.97;;;8.02;100.00
68994;BME280;56054;50.968;5.816;2023-02-12T11:11:43;103091.84;;;8.07;100.00
68994;BME280;56054;50.968;5.816;2023-02-12T11:14:52;103087.88;;;8.18;100.00
68994;BME280;56054;50.968;5.816;2023-02-12T11:18:27;103084.78;;;8.13;100.00
68994;BME280;56054;50.968;5.816;2023-02-12T11:21:35;103077.34;;;8.16;100.00
68994;BME280;56054;50.968;5.816;2023-02-12T11:24:45;103069.41;;;8.14;100.00
68994;BME280;56054;50.968;5.816;2023-02-12T11:27:59;103070.31;;;8.15;100.00
68994;BME280;56054;50.968;5.816;2023-02-12T11:34:22;103062.38;;;8.13;100.00
68994;BME280;56054;50.968;5.816;2023-02-12T11:37:31;103051.09;;;8.13;100.00
68994;BME280;56054;50.968;5.816;2023-02-12T11:40:45;103053.44;;;8.19;100.00
68994;BME280;56054;50.968;5.816;2023-02-12T11:43:53;103049.94;;;8.18;100.00
68994;BME280;56054;50.968;5.816;2023-02-12T11:47:08;103043.00;;;8.26;100.00
68994;BME280;56054;50.968;5.816;2023-02-12T11:50:32;103049.78;;;8.32;100.00
68994;BME280;56054;50.968;5.816;2023-02-12T11:53:41;103033.91;;;8.29;100.00
68994;BME280;56054;50.968;5.816;2023-02-12T11:56:48;103043.69;;;8.32;100.00
68994;BME280;56054;50.968;5.816;2023-02-12T11:59:56;103032.38;;;8.31;100.00
68994;BME280;56054;50.968;5.816;2023-02-12T12:03:27;103024.28;;;8.28;100.00
68994;BME280;56054;50.968;5.816;2023-02-12T12:06:48;103031.22;;;8.36;100.00
68994;BME280;56054;50.968;5.816;2023-02-12T12:13:43;103025.88;;;8.35;100.00
68994;BME280;56054;50.968;5.816;2023-02-12T12:17:04;103020.28;;;8.39;100.00
68994;BME280;56054;50.968;5.816;2023-02-12T12:20:20;103011.50;;;8.46;100.00
68994;BME280;56054;50.968;5.816;2023-02-12T12:33:50;103004.22;;;8.50;100.00
68994;BME280;56054;50.968;5.816;2023-02-12T12:37:22;103005.66;;;8.55;100.00
68994;BME280;56054;50.968;5.816;2023-02-12T12:47:19;103007.31;;;8.55;100.00
68994;BME280;56054;50.968;5.816;2023-02-12T12:53:54;102998.81;;;8.56;100.00
68994;BME280;56054;50.968;5.816;2023-02-12T12:57:58;102993.69;;;8.65;100.00
68994;BME280;56054;50.968;5.816;2023-02-12T13:11:34;102982.56;;;8.66;100.00
68994;BME280;56054;50.968;5.816;2023-02-12T13:19:01;102960.16;;;8.66;100.00
68994;BME280;56054;50.968;5.816;2023-02-12T13:22:22;102957.72;;;8.68;100.00
68994;BME280;56054;50.968;5.816;2023-02-12T13:28:51;102944.25;;;8.63;100.00
68994;BME280;56054;50.968;5.816;2023-02-12T13:35:42;102945.84;;;8.70;100.00
68994;BME280;56054;50.968;5.816;2023-02-12T13:39:17;102950.81;;;8.84;100.00
68994;BME280;56054;50.968;5.816;2023-02-12T13:53:54;102948.75;;;8.73;100.00
68994;BME280;56054;50.968;5.816;2023-02-12T13:57:14;102939.16;;;8.72;100.00
68994;BME280;56054;50.968;5.816;2023-02-12T14:03:54;102941.75;;;8.72;100.00
68994;BME280;56054;50.968;5.816;2023-02-12T14:07:07;102933.34;;;8.66;100.00
68994;BME280;56054;50.968;5.816;2023-02-12T14:10:43;102934.84;;;8.64;100.00
68994;BME280;56054;50.968;5.816;2023-02-12T14:14:10;102933.06;;;8.71;100.00
68994;BME280;56054;50.968;5.816;2023-02-12T14:20:36;102934.28;;;8.75;100.00
68994;BME280;56054;50.968;5.816;2023-02-12T14:23:45;102933.66;;;8.69;100.00
68994;BME280;56054;50.968;5.816;2023-02-12T14:26:52;102929.38;;;8.69;100.00
68994;BME280;56054;50.968;5.816;2023-02-12T14:33:22;102935.78;;;8.73;100.00
68994;BME280;56054;50.968;5.816;2023-02-12T14:39:39;102942.94;;;8.67;100.00
68994;BME280;56054;50.968;5.816;2023-02-12T14:42:55;102941.84;;;8.65;100.00
68994;BME280;56054;50.968;5.816;2023-02-12T14:49:52;102941.41;;;8.69;100.00
68994;BME280;56054;50.968;5.816;2023-02-12T14:53:27;102931.47;;;8.65;100.00
68994;BME280;56054;50.968;5.816;2023-02-12T14:56:42;102934.97;;;8.65;100.00
68994;BME280;56054;50.968;5.816;2023-02-12T14:59:58;102935.56;;;8.63;100.00
68994;BME280;56054;50.968;5.816;2023-02-12T15:06:34;102927.97;;;8.64;100.00
68994;BME280;56054;50.968;5.816;2023-02-12T15:10:12;102924.63;;;8.65;100.00
68994;BME280;56054;50.968;5.816;2023-02-12T15:24:10;102914.34;;;8.58;100.00
68994;BME280;56054;50.968;5.816;2023-02-12T15:30:34;102912.34;;;8.55;100.00
68994;BME280;56054;50.968;5.816;2023-02-12T15:33:58;102918.47;;;8.56;100.00
68994;BME280;56054;50.968;5.816;2023-02-12T15:37:20;102918.31;;;8.54;100.00
68994;BME280;56054;50.968;5.816;2023-02-12T15:40:29;102913.13;;;8.54;100.00
68994;BME280;56054;50.968;5.816;2023-02-12T15:43:40;102920.13;;;8.55;100.00
68994;BME280;56054;50.968;5.816;2023-02-12T15:50:13;102915.72;;;8.54;100.00
68994;BME280;56054;50.968;5.816;2023-02-12T15:53:22;102906.69;;;8.51;100.00
68994;BME280;56054;50.968;5.816;2023-02-12T15:56:30;102912.81;;;8.51;100.00
68994;BME280;56054;50.968;5.816;2023-02-12T15:59:37;102909.13;;;8.49;100.00
68994;BME280;56054;50.968;5.816;2023-02-12T16:02:51;102906.38;;;8.48;100.00
68994;BME280;56054;50.968;5.816;2023-02-12T16:06:12;102908.34;;;8.50;100.00
68994;BME280;56054;50.968;5.816;2023-02-12T16:09:31;102910.63;;;8.47;100.00
68994;BME280;56054;50.968;5.816;2023-02-12T16:12:40;102907.88;;;8.46;100.00
68994;BME280;56054;50.968;5.816;2023-02-12T16:19:21;102896.66;;;8.54;100.00
68994;BME280;56054;50.968;5.816;2023-02-12T16:22:39;102894.66;;;8.51;100.00
68994;BME280;56054;50.968;5.816;2023-02-12T16:25:52;102894.50;;;8.50;100.00
68994;BME280;56054;50.968;5.816;2023-02-12T16:29:00;102898.75;;;8.49;100.00
68994;BME280;56054;50.968;5.816;2023-02-12T16:35:33;102898.09;;;8.43;100.00
68994;BME280;56054;50.968;5.816;2023-02-12T16:38:45;102900.88;;;8.45;100.00
68994;BME280;56054;50.968;5.816;2023-02-12T16:41:55;102905.16;;;8.53;100.00
68994;BME280;56054;50.968;5.816;2023-02-12T16:48:45;102891.69;;;8.40;100.00
68994;BME280;56054;50.968;5.816;2023-02-12T16:52:23;102891.34;;;8.36;100.00
68994;BME280;56054;50.968;5.816;2023-02-12T16:55:34;102894.53;;;8.34;100.00
68994;BME280;56054;50.968;5.816;2023-02-12T16:59:09;102890.06;;;8.33;100.00
68994;BME280;56054;50.968;5.816;2023-02-12T17:02:16;102894.94;;;8.30;100.00
68994;BME280;56054;50.968;5.816;2023-02-12T17:05:23;102888.84;;;8.29;100.00
68994;BME280;56054;50.968;5.816;2023-02-12T17:08:30;102886.06;;;8.28;100.00
68994;BME280;56054;50.968;5.816;2023-02-12T17:11:37;102895.66;;;8.29;100.00
68994;BME280;56054;50.968;5.816;2023-02-12T17:14:44;102890.34;;;8.27;100.00
68994;BME280;56054;50.968;5.816;2023-02-12T17:18:24;102896.44;;;8.28;100.00
68994;BME280;56054;50.968;5.816;2023-02-12T17:25:03;102896.13;;;8.25;100.00
68994;BME280;56054;50.968;5.816;2023-02-12T17:28:10;102896.72;;;8.22;100.00
68994;BME280;56054;50.968;5.816;2023-02-12T17:31:17;102897.63;;;8.23;100.00
68994;BME280;56054;50.968;5.816;2023-02-12T17:34:25;102902.81;;;8.23;100.00
68994;BME280;56054;50.968;5.816;2023-02-12T17:37:37;102900.63;;;8.19;100.00
68994;BME280;56054;50.968;5.816;2023-02-12T17:40:47;102896.94;;;8.17;100.00
68994;BME280;56054;50.968;5.816;2023-02-12T17:43:54;102897.72;;;8.15;100.00
68994;BME280;56054;50.968;5.816;2023-02-12T17:47:01;102899.41;;;8.15;100.00
68994;BME280;56054;50.968;5.816;2023-02-12T17:50:23;102899.63;;;8.09;100.00
68994;BME280;56054;50.968;5.816;2023-02-12T17:53:33;102899.31;;;8.06;100.00
68994;BME280;56054;50.968;5.816;2023-02-12T17:56:40;102897.63;;;8.07;100.00
68994;BME280;56054;50.968;5.816;2023-02-12T17:59:47;102899.16;;;8.05;100.00
68994;BME280;56054;50.968;5.816;2023-02-12T18:02:54;102894.91;;;8.05;100.00
68994;BME280;56054;50.968;5.816;2023-02-12T18:06:02;102904.75;;;8.01;100.00
68994;BME280;56054;50.968;5.816;2023-02-12T18:09:09;102894.72;;;8.04;100.00
68994;BME280;56054;50.968;5.816;2023-02-12T18:12:16;102895.00;;;7.98;100.00
68994;BME280;56054;50.968;5.816;2023-02-12T18:15:23;102899.56;;;8.01;100.00
68994;BME280;56054;50.968;5.816;2023-02-12T18:18:30;102896.50;;;7.96;100.00
68994;BME280;56054;50.968;5.816;2023-02-12T18:21:37;102885.81;;;7.93;100.00
68994;BME280;56054;50.968;5.816;2023-02-12T18:24:45;102896.16;;;7.93;100.00
68994;BME280;56054;50.968;5.816;2023-02-12T18:27:52;102899.50;;;7.92;100.00
68994;BME280;56054;50.968;5.816;2023-02-12T18:31:00;102898.56;;;7.91;100.00
68994;BME280;56054;50.968;5.816;2023-02-12T18:34:06;102885.44;;;7.90;100.00
68994;BME280;56054;50.968;5.816;2023-02-12T18:37:13;102894.56;;;7.86;100.00
68994;BME280;56054;50.968;5.816;2023-02-12T18:40:20;102882.97;;;7.83;100.00
68994;BME280;56054;50.968;5.816;2023-02-12T18:43:27;102887.81;;;7.80;100.00
68994;BME280;56054;50.968;5.816;2023-02-12T18:46:34;102888.38;;;7.77;100.00
68994;BME280;56054;50.968;5.816;2023-02-12T18:49:41;102889.75;;;7.74;100.00
68994;BME280;56054;50.968;5.816;2023-02-12T18:52:48;102879.81;;;7.69;100.00
68994;BME280;56054;50.968;5.816;2023-02-12T18:55:56;102887.38;;;7.68;100.00
68994;BME280;56054;50.968;5.816;2023-02-12T18:59:04;102884.47;;;7.65;100.00
68994;BME280;56054;50.968;5.816;2023-02-12T19:02:12;102883.97;;;7.60;100.00
68994;BME280;56054;50.968;5.816;2023-02-12T19:05:19;102887.00;;;7.56;100.00
68994;BME280;56054;50.968;5.816;2023-02-12T19:08:26;102878.13;;;7.54;100.00
68994;BME280;56054;50.968;5.816;2023-02-12T19:11:36;102880.94;;;7.48;100.00
68994;BME280;56054;50.968;5.816;2023-02-12T19:14:51;102885.22;;;7.48;100.00
68994;BME280;56054;50.968;5.816;2023-02-12T19:17:58;102879.53;;;7.43;100.00
68994;BME280;56054;50.968;5.816;2023-02-12T19:21:11;102882.38;;;7.38;100.00
68994;BME280;56054;50.968;5.816;2023-02-12T19:24:18;102883.13;;;7.37;100.00
68994;BME280;56054;50.968;5.816;2023-02-12T19:28:04;102879.13;;;7.32;100.00
68994;BME280;56054;50.968;5.816;2023-02-12T19:31:23;102890.97;;;7.29;100.00
68994;BME280;56054;50.968;5.816;2023-02-12T19:34:31;102887.69;;;7.23;100.00
68994;BME280;56054;50.968;5.816;2023-02-12T19:37:38;102885.09;;;7.23;100.00
68994;BME280;56054;50.968;5.816;2023-02-12T19:40:45;102880.69;;;7.22;100.00
68994;BME280;56054;50.968;5.816;2023-02-12T19:43:54;102877.91;;;7.21;100.00
68994;BME280;56054;50.968;5.816;2023-02-12T19:47:01;102877.84;;;7.12;100.00
68994;BME280;56054;50.968;5.816;2023-02-12T19:50:08;102872.34;;;7.02;100.00
68994;BME280;56054;50.968;5.816;2023-02-12T19:53:15;102860.84;;;6.91;100.00
68994;BME280;56054;50.968;5.816;2023-02-12T19:56:25;102864.00;;;6.89;100.00
68994;BME280;56054;50.968;5.816;2023-02-12T19:59:32;102862.13;;;6.88;100.00
68994;BME280;56054;50.968;5.816;2023-02-12T20:02:42;102863.66;;;6.85;100.00
68994;BME280;56054;50.968;5.816;2023-02-12T20:06:06;102869.41;;;6.83;100.00
68994;BME280;56054;50.968;5.816;2023-02-12T20:09:20;102864.13;;;6.74;100.00
68994;BME280;56054;50.968;5.816;2023-02-12T20:12:28;102868.69;;;6.77;100.00
68994;BME280;56054;50.968;5.816;2023-02-12T20:15:40;102868.03;;;6.71;100.00
68994;BME280;56054;50.968;5.816;2023-02-12T20:18:49;102863.66;;;6.62;100.00
68994;BME280;56054;50.968;5.816;2023-02-12T20:22:07;102856.31;;;6.58;100.00
68994;BME280;56054;50.968;5.816;2023-02-12T20:25:40;102864.78;;;6.57;100.00
68994;BME280;56054;50.968;5.816;2023-02-12T20:28:46;102864.84;;;6.50;100.00
68994;BME280;56054;50.968;5.816;2023-02-12T20:32:19;102864.31;;;6.46;100.00
68994;BME280;56054;50.968;5.816;2023-02-12T20:35:53;102858.81;;;6.42;100.00
68994;BME280;56054;50.968;5.816;2023-02-12T20:39:08;102871.34;;;6.47;100.00
